Time;durP1;ratioP1;P1;durP2;ratioP2;P2;SDS_P1;SDS_P2;PMS_P1;PMS_P2;Temp;Humidity;BMP_temperature;BMP_pressure;BME280_temperature;BME280_humidity;BME280_pressure;Samples;Min_cycle;Max_cycle;Signal;HPM_P1;HPM_P2
2020/12/27 05:02:39;;;;;;;1999.90;999.90;;;1.30;99.90;;;;;;4915814;29;20227;-77
2020/12/27 05:05:12;;;;;;;1999.90;999.90;;;1.20;99.90;;;;;;4917430;29;20202;-77
2020/12/27 05:07:42;;;;;;;1999.90;999.90;;;1.20;99.90;;;;;;4917113;29;20207;-77
2020/12/27 05:10:09;;;;;;;1999.90;999.90;;;1.30;99.90;;;;;;4917210;29;20249;-77
2020/12/27 05:12:37;;;;;;;1999.90;999.90;;;1.40;99.90;;;;;;4936211;29;20209;-77
2020/12/27 05:15:05;;;;;;;1999.90;999.90;;;1.30;99.90;;;;;;4936789;29;20206;-77
2020/12/27 05:17:32;;;;;;;1999.90;999.90;;;1.40;99.90;;;;;;4936112;29;20202;-77
2020/12/27 05:20:07;;;;;;;1999.90;999.90;;;1.10;99.90;;;;;;4935652;29;20730;-77
2020/12/27 05:22:36;;;;;;;1999.90;999.90;;;1.10;99.90;;;;;;4935904;29;20221;-77
2020/12/27 05:25:04;;;;;;;1999.90;999.90;;;1.20;99.90;;;;;;4935879;29;20206;-77
2020/12/27 05:27:32;;;;;;;1999.90;999.90;;;1.20;99.90;;;;;;4936038;29;20210;-77
2020/12/27 05:30:00;;;;;;;1999.90;999.90;;;1.40;99.90;;;;;;4935803;29;20209;-77
2020/12/27 05:32:30;;;;;;;1999.90;999.90;;;1.40;99.90;;;;;;4935779;29;20226;-77
2020/12/27 05:34:57;;;;;;;1999.90;999.90;;;1.40;99.90;;;;;;4935781;29;20726;-77
2020/12/27 05:37:26;;;;;;;1999.90;999.90;;;1.40;99.90;;;;;;4935672;29;20210;-77
2020/12/27 05:39:53;;;;;;;1999.90;999.90;;;1.40;99.90;;;;;;4935618;29;20202;-77
2020/12/27 05:42:24;;;;;;;1999.90;999.90;;;1.40;99.90;;;;;;4935413;29;20253;-77
2020/12/27 05:44:52;;;;;;;1999.90;999.90;;;1.30;99.90;;;;;;4939337;29;20238;-77
2020/12/27 05:47:19;;;;;;;1999.90;999.90;;;1.30;99.90;;;;;;4937173;29;20202;-77
2020/12/27 05:49:46;;;;;;;1999.90;999.90;;;1.30;99.90;;;;;;4935618;29;20555;-76
2020/12/27 05:52:15;;;;;;;1999.90;999.90;;;1.30;99.90;;;;;;4933196;29;20226;-77
2020/12/27 05:54:47;;;;;;;1999.90;999.90;;;1.30;99.90;;;;;;4937113;29;20207;-77
2020/12/27 05:57:15;;;;;;;1999.90;999.90;;;1.10;99.90;;;;;;4941303;29;20213;-77
2020/12/27 05:59:45;;;;;;;1999.90;999.90;;;1.10;99.90;;;;;;4937100;29;20265;-76
2020/12/27 06:02:39;;;;;;;1999.90;999.90;;;1.20;99.90;;;;;;4938848;29;20226;-77
2020/12/27 06:05:13;;;;;;;1999.90;999.90;;;1.10;99.90;;;;;;4944103;29;20210;-78
2020/12/27 06:07:42;;;;;;;1999.90;999.90;;;1.10;99.90;;;;;;4939387;29;20276;-77
2020/12/27 06:10:15;;;;;;;1999.90;999.90;;;1.20;99.90;;;;;;4942893;29;20220;-77
2020/12/27 06:13:38;;;;;;;1999.90;999.90;;;1.20;99.90;;;;;;4944510;29;20289;-77
2020/12/27 06:16:11;;;;;;;1999.90;999.90;;;1.20;99.90;;;;;;4944100;29;20211;-79
2020/12/27 06:18:40;;;;;;;1999.90;999.90;;;1.40;99.90;;;;;;4941087;29;20206;-77
2020/12/27 06:21:09;;;;;;;1999.90;999.90;;;1.40;99.90;;;;;;4934609;29;20240;-77
2020/12/27 06:23:37;;;;;;;1999.90;999.90;;;1.40;99.90;;;;;;4934972;29;20273;-77
2020/12/27 06:26:06;;;;;;;1999.90;999.90;;;1.40;99.90;;;;;;4934833;29;20210;-77
2020/12/27 06:28:34;;;;;;;1999.90;999.90;;;1.40;99.90;;;;;;4934731;29;20232;-77
2020/12/27 06:31:07;;;;;;;1999.90;999.90;;;1.40;99.90;;;;;;4934591;29;20742;-77
2020/12/27 06:33:37;;;;;;;1999.90;999.90;;;1.50;99.90;;;;;;4934600;29;20210;-77
2020/12/27 06:36:04;;;;;;;1999.90;999.90;;;1.60;99.90;;;;;;4934836;29;20202;-77
2020/12/27 06:38:39;;;;;;;1999.90;999.90;;;1.60;99.90;;;;;;4934505;29;20208;-77
2020/12/27 06:41:09;;;;;;;1999.90;999.90;;;1.50;99.90;;;;;;4934499;29;20230;-77
2020/12/27 06:43:42;;;;;;;1999.90;999.90;;;1.50;99.90;;;;;;4934591;29;20233;-77
2020/12/27 06:46:21;;;;;;;1999.90;999.90;;;1.40;99.90;;;;;;4934480;29;20280;-77
2020/12/27 06:48:48;;;;;;;1999.90;999.90;;;1.20;99.90;;;;;;4934745;29;20346;-77
2020/12/27 06:51:36;;;;;;;1999.90;999.90;;;1.20;99.90;;;;;;4934326;29;20221;-77
2020/12/27 06:54:03;;;;;;;1999.90;999.90;;;1.20;99.90;;;;;;4934507;29;20243;-77
2020/12/27 06:56:38;;;;;;;1999.90;999.90;;;1.30;99.90;;;;;;4934383;29;20240;-77
2020/12/27 06:59:05;;;;;;;1999.90;999.90;;;1.30;99.90;;;;;;4934480;29;20268;-76
2020/12/27 07:01:32;;;;;;;1999.90;999.90;;;1.30;99.90;;;;;;4933985;29;20237;-77
2020/12/27 07:04:13;;;;;;;1999.90;999.90;;;1.30;99.90;;;;;;4933748;29;20218;-77
2020/12/27 07:06:41;;;;;;;1999.90;999.90;;;1.30;99.90;;;;;;4917409;29;20290;-77
2020/12/27 07:09:11;;;;;;;1999.90;999.90;;;1.40;99.90;;;;;;4917451;29;20206;-77
2020/12/27 07:11:39;;;;;;;1999.90;999.90;;;1.40;99.90;;;;;;4919012;29;20227;-77
2020/12/27 07:14:10;;;;;;;1999.90;999.90;;;1.40;99.90;;;;;;4919557;29;20202;-77
2020/12/27 07:16:54;;;;;;;1999.90;999.90;;;1.50;99.90;;;;;;4917489;29;20206;-77
2020/12/27 07:19:25;;;;;;;1999.90;999.90;;;1.50;99.90;;;;;;4918687;29;20262;-77
2020/12/27 07:21:54;;;;;;;1999.90;999.90;;;1.50;99.90;;;;;;4917556;29;20315;-77
2020/12/27 07:24:27;;;;;;;1999.90;999.90;;;1.50;99.90;;;;;;4921119;29;20214;-78
2020/12/27 07:26:57;;;;;;;1999.90;999.90;;;1.50;99.90;;;;;;4920694;29;20211;-78
2020/12/27 07:29:27;;;;;;;1999.90;999.90;;;1.60;99.90;;;;;;4920726;29;20207;-77
2020/12/27 07:31:55;;;;;;;1999.90;999.90;;;1.60;99.90;;;;;;4923048;29;20226;-77
2020/12/27 07:34:24;;;;;;;1999.90;999.90;;;1.50;99.90;;;;;;4923030;29;20214;-80
2020/12/27 07:37:06;;;;;;;1999.90;999.90;;;1.60;99.90;;;;;;4922732;29;20296;-77
2020/12/27 07:39:55;;;;;;;1999.90;999.90;;;1.60;99.90;;;;;;4937978;29;20667;-78
2020/12/27 07:42:27;;;;;;;1999.90;999.90;;;1.70;99.90;;;;;;4938256;29;20234;-78
2020/12/27 07:44:57;;;;;;;1999.90;999.90;;;1.70;99.90;;;;;;4938964;29;20217;-78
2020/12/27 07:47:24;;;;;;;1999.90;999.90;;;1.70;99.90;;;;;;4938788;29;20210;-77
2020/12/27 07:50:06;;;;;;;1999.90;999.90;;;1.70;99.90;;;;;;4938397;29;20217;-78
2020/12/27 07:52:45;;;;;;;1999.90;999.90;;;1.70;99.90;;;;;;4938281;29;20222;-78
2020/12/27 07:55:33;;;;;;;1999.90;999.90;;;1.70;99.90;;;;;;4939168;29;20216;-78
2020/12/27 07:58:03;;;;;;;1999.90;999.90;;;1.70;99.90;;;;;;4937893;29;20706;-78
2020/12/27 08:00:33;;;;;;;1999.90;999.90;;;1.70;99.90;;;;;;4938197;29;20230;-81
2020/12/27 08:03:06;;;;;;;1999.90;999.90;;;1.80;99.90;;;;;;4938164;29;20233;-79
2020/12/27 08:05:36;;;;;;;1999.90;999.90;;;1.90;99.90;;;;;;4938536;29;20190;-78
2020/12/27 08:08:04;;;;;;;1999.90;999.90;;;1.80;99.90;;;;;;4937969;29;20636;-79
2020/12/27 08:10:35;;;;;;;1999.90;999.90;;;1.80;99.90;;;;;;4938475;29;20594;-79
2020/12/27 08:13:04;;;;;;;1999.90;999.90;;;2.00;99.90;;;;;;4938782;29;20217;-79
2020/12/27 08:15:36;;;;;;;1999.90;999.90;;;2.10;99.90;;;;;;4938471;29;20257;-78
2020/12/27 08:18:04;;;;;;;1999.90;999.90;;;2.00;99.90;;;;;;4937797;29;20253;-81
2020/12/27 08:20:33;;;;;;;1999.90;999.90;;;2.10;99.90;;;;;;4937788;29;20719;-79
2020/12/27 08:23:08;;;;;;;1999.90;999.90;;;2.10;99.40;;;;;;4938509;29;20206;-78
2020/12/27 08:25:36;;;;;;;1999.90;999.90;;;2.20;99.10;;;;;;4938366;29;20261;-78
2020/12/27 08:28:06;;;;;;;1999.90;999.90;;;2.40;99.00;;;;;;4937989;29;20285;-78
2020/12/27 08:30:33;;;;;;;1999.90;999.90;;;2.50;98.90;;;;;;4937734;29;20226;-77
2020/12/27 08:33:04;;;;;;;1999.90;999.90;;;2.50;98.10;;;;;;4934955;29;20245;-77
2020/12/27 08:35:31;;;;;;;1999.90;999.90;;;2.50;97.50;;;;;;4935639;29;20214;-76
2020/12/27 08:38:10;;;;;;;1999.90;999.90;;;2.60;97.60;;;;;;4936862;29;20210;-78
2020/12/27 08:40:40;;;;;;;1999.90;999.90;;;2.70;97.40;;;;;;4936717;29;20292;-76
2020/12/27 08:43:19;;;;;;;1999.90;999.90;;;2.80;97.10;;;;;;4936901;29;20602;-76
2020/12/27 08:45:56;;;;;;;1999.90;999.90;;;2.80;96.70;;;;;;4936125;29;20206;-77
2020/12/27 08:48:31;;;;;;;1999.90;999.90;;;3.00;96.90;;;;;;4936461;29;20270;-77
2020/12/27 08:51:01;;;;;;;1999.90;999.90;;;3.00;95.70;;;;;;4937022;29;20217;-77
2020/12/27 08:53:31;;;;;;;1999.90;999.90;;;3.10;96.00;;;;;;4937677;29;20210;-77
2020/12/27 08:56:01;;;;;;;1999.90;999.90;;;3.10;94.90;;;;;;4935949;29;20214;-77
2020/12/27 08:58:29;;;;;;;1999.90;999.90;;;3.10;94.50;;;;;;4936746;29;20281;-76
2020/12/27 09:00:55;;;;;;;1999.90;999.90;;;3.10;94.00;;;;;;4936451;29;20740;-77
2020/12/27 09:03:22;;;;;;;1999.90;999.90;;;3.10;93.20;;;;;;4936770;29;20210;-77
2020/12/27 09:05:49;;;;;;;1999.90;999.90;;;3.10;93.10;;;;;;4935675;29;20551;-77
2020/12/27 09:08:18;;;;;;;1999.90;999.90;;;3.20;92.80;;;;;;4936446;29;20220;-77
2020/12/27 09:10:47;;;;;;;1999.90;999.90;;;3.20;92.60;;;;;;4936621;29;20233;-77
2020/12/27 09:13:15;;;;;;;1999.90;999.90;;;3.30;92.00;;;;;;4936560;29;20202;-77
2020/12/27 09:15:46;;;;;;;1999.90;999.90;;;3.30;91.10;;;;;;4936535;29;20214;-77
2020/12/27 09:18:14;;;;;;;1999.90;999.90;;;3.40;90.70;;;;;;4936359;29;20206;-77
2020/12/27 09:20:43;;;;;;;1999.90;999.90;;;3.40;90.70;;;;;;4936674;29;20221;-77
2020/12/27 09:23:12;;;;;;;1999.90;999.90;;;3.40;90.50;;;;;;4936471;29;20230;-77
2020/12/27 09:25:39;;;;;;;1999.90;999.90;;;3.40;90.40;;;;;;4936340;29;20668;-77
2020/12/27 09:28:13;;;;;;;1999.90;999.90;;;3.50;90.30;;;;;;4936147;29;20746;-77
2020/12/27 09:30:44;;;;;;;1999.90;999.90;;;3.50;90.10;;;;;;4936173;29;20320;-77
2020/12/27 09:33:12;;;;;;;1999.90;999.90;;;3.40;89.90;;;;;;4936550;29;20265;-77
2020/12/27 09:35:38;;;;;;;1999.90;999.90;;;3.40;90.60;;;;;;4936289;29;20206;-77
2020/12/27 09:38:24;;;;;;;1999.90;999.90;;;3.40;90.10;;;;;;4936248;29;20209;-77
2020/12/27 09:41:09;;;;;;;1999.90;999.90;;;3.40;90.20;;;;;;4935832;29;20230;-77
2020/12/27 09:43:49;;;;;;;1999.90;999.90;;;3.40;90.10;;;;;;4936118;29;20632;-77
2020/12/27 09:46:42;;;;;;;1999.90;999.90;;;3.50;90.00;;;;;;4935440;29;20206;-77
2020/12/27 09:49:20;;;;;;;1999.90;999.90;;;3.60;90.70;;;;;;4935533;29;20631;-77
2020/12/27 09:52:00;;;;;;;1999.90;999.90;;;3.50;90.00;;;;;;4935726;29;20222;-79
2020/12/27 09:54:27;;;;;;;1999.90;999.90;;;3.50;89.60;;;;;;4935919;29;20209;-77
2020/12/27 09:56:53;;;;;;;1999.90;999.90;;;3.50;90.30;;;;;;4934453;29;20242;-77
2020/12/27 09:59:20;;;;;;;1999.90;999.90;;;3.40;90.70;;;;;;4935726;29;20202;-78
2020/12/27 10:01:48;;;;;;;1999.90;999.90;;;3.40;90.40;;;;;;4926457;29;20655;-78
2020/12/27 10:04:16;;;;;;;1999.90;999.90;;;3.40;90.60;;;;;;4928409;29;20497;-78
2020/12/27 10:13:12;;;;;;;1999.90;999.90;;;3.20;90.70;;;;;;4975064;23;20235;-79
2020/12/27 10:15:39;;;;;;;1999.90;999.90;;;3.10;90.60;;;;;;4962800;28;20198;-78
2020/12/27 10:18:07;;;;;;;1999.90;999.90;;;3.20;91.00;;;;;;4954288;29;20212;-80
2020/12/27 10:20:33;;;;;;;1999.90;999.90;;;3.20;90.90;;;;;;4954409;29;20282;-80
2020/12/27 10:23:00;;;;;;;1999.90;999.90;;;3.10;90.80;;;;;;4955033;29;20300;-79
2020/12/27 10:25:27;;;;;;;1999.90;999.90;;;3.20;91.10;;;;;;4955039;29;20529;-80
2020/12/27 10:27:54;;;;;;;1999.90;999.90;;;3.10;91.10;;;;;;4954680;29;20205;-79
2020/12/27 10:30:21;;;;;;;1999.90;999.90;;;3.00;91.40;;;;;;4955208;29;20205;-81
2020/12/27 10:33:01;;;;;;;1999.90;999.90;;;2.90;91.20;;;;;;4955785;29;20280;-80
2020/12/27 10:35:28;;;;;;;1999.90;999.90;;;2.90;91.20;;;;;;4956317;29;20256;-80
2020/12/27 10:37:56;;;;;;;1999.90;999.90;;;2.80;91.70;;;;;;4961775;28;20208;-80
2020/12/27 10:40:23;;;;;;;1999.90;999.90;;;2.80;92.10;;;;;;4972785;28;20648;-80
2020/12/27 10:42:51;;;;;;;1999.90;999.90;;;2.80;91.80;;;;;;4974924;28;20221;-79
2020/12/27 10:45:18;;;;;;;1999.90;999.90;;;2.70;91.60;;;;;;4974007;28;20204;-80
2020/12/27 10:47:46;;;;;;;1999.90;999.90;;;2.70;91.60;;;;;;4974597;28;20208;-78
2020/12/27 10:50:15;;;;;;;1999.90;999.90;;;2.70;92.00;;;;;;4974123;28;20201;-79
2020/12/27 10:52:43;;;;;;;1999.90;999.90;;;2.80;92.00;;;;;;4974378;28;20211;-79
2020/12/27 10:55:11;;;;;;;1999.90;999.90;;;2.90;91.90;;;;;;4974793;28;20204;-79
2020/12/27 10:57:38;;;;;;;1999.90;999.90;;;2.90;92.00;;;;;;4973727;28;20204;-79
2020/12/27 11:00:06;;;;;;;1999.90;999.90;;;2.90;91.90;;;;;;4977705;28;20204;-78
2020/12/27 11:02:33;;;;;;;1999.90;999.90;;;2.80;91.90;;;;;;4977582;28;20243;-79
2020/12/27 11:05:00;;;;;;;1999.90;999.90;;;2.80;92.10;;;;;;4979210;28;20629;-79
2020/12/27 11:07:31;;;;;;;1999.90;999.90;;;2.80;91.90;;;;;;4978336;28;20408;-79
2020/12/27 11:09:59;;;;;;;1999.90;999.90;;;2.80;91.80;;;;;;4977616;28;20205;-79
2020/12/27 11:12:26;;;;;;;1999.90;999.90;;;2.70;91.50;;;;;;4977994;28;20283;-78
2020/12/27 11:14:53;;;;;;;1999.90;999.90;;;2.70;91.90;;;;;;4978548;28;20208;-78
2020/12/27 11:17:20;;;;;;;1999.90;999.90;;;2.70;92.30;;;;;;4984723;28;20255;-80
2020/12/27 11:19:46;;;;;;;1999.90;999.90;;;2.60;92.50;;;;;;4992620;28;20429;-80
2020/12/27 11:22:13;;;;;;;1999.90;999.90;;;2.60;92.20;;;;;;4999243;28;20234;-79
2020/12/27 11:24:40;;;;;;;1999.90;999.90;;;2.60;92.10;;;;;;4974215;28;20247;-80
2020/12/27 11:27:09;;;;;;;1999.90;999.90;;;2.60;92.70;;;;;;4979785;28;20263;-80
2020/12/27 11:29:37;;;;;;;1999.90;999.90;;;2.70;92.40;;;;;;4980655;28;20204;-80
2020/12/27 11:32:04;;;;;;;1999.90;999.90;;;2.70;91.90;;;;;;4980187;28;20248;-80
2020/12/27 11:35:02;;;;;;;1999.90;999.90;;;2.80;92.30;;;;;;4976906;28;20225;-79
2020/12/27 11:37:30;;;;;;;1999.90;999.90;;;3.10;92.20;;;;;;4970544;28;20205;-80
2020/12/27 11:39:57;;;;;;;1999.90;999.90;;;2.80;91.90;;;;;;4970511;28;20659;-82
2020/12/27 11:42:26;;;;;;;1999.90;999.90;;;2.90;92.20;;;;;;4974851;28;20225;-81
2020/12/27 11:44:54;;;;;;;1999.90;999.90;;;2.80;91.80;;;;;;4962387;28;20204;-80
2020/12/27 11:47:21;;;;;;;1999.90;999.90;;;2.80;92.00;;;;;;4979566;28;20351;-83
2020/12/27 11:49:49;;;;;;;1999.90;999.90;;;2.80;92.10;;;;;;4980454;28;20198;-81
2020/12/27 11:52:17;;;;;;;1999.90;999.90;;;2.90;92.20;;;;;;4978227;28;20230;-81
2020/12/27 11:54:44;;;;;;;1999.90;999.90;;;2.70;91.90;;;;;;4980118;28;20206;-82
2020/12/27 11:57:11;;;;;;;1999.90;999.90;;;2.70;92.60;;;;;;4980161;28;20201;-80
2020/12/27 11:59:39;;;;;;;1999.90;999.90;;;2.80;92.30;;;;;;4979871;28;20221;-82
2020/12/27 12:02:07;;;;;;;1999.90;999.90;;;2.80;92.00;;;;;;4978435;28;20254;-79
2020/12/27 12:04:34;;;;;;;1999.90;999.90;;;2.80;91.90;;;;;;4977619;28;20201;-82
2020/12/27 12:07:01;;;;;;;1999.90;999.90;;;2.90;91.90;;;;;;4975871;28;20224;-80
2020/12/27 12:09:29;;;;;;;1999.90;999.90;;;3.00;92.10;;;;;;4972311;28;20616;-82
2020/12/27 12:12:09;;;;;;;1999.90;999.90;;;3.10;91.90;;;;;;4974815;28;20238;-81
2020/12/27 12:14:39;;;;;;;1999.90;999.90;;;3.20;91.70;;;;;;4970388;28;20204;-82
2020/12/27 12:17:06;;;;;;;1999.90;999.90;;;3.30;91.50;;;;;;4969960;28;20307;-82
2020/12/27 12:19:34;;;;;;;1999.90;999.90;;;3.70;91.60;;;;;;4969260;28;20231;-82
2020/12/27 12:22:01;;;;;;;1999.90;999.90;;;3.30;91.60;;;;;;4971027;28;20656;-80
2020/12/27 12:24:28;;;;;;;1999.90;999.90;;;3.40;91.60;;;;;;4968323;28;20224;-81
2020/12/27 12:26:55;;;;;;;1999.90;999.90;;;3.50;91.20;;;;;;4965958;28;20685;-81
2020/12/27 12:29:22;;;;;;;1999.90;999.90;;;3.60;91.00;;;;;;4969620;28;20255;-79
2020/12/27 12:31:52;;;;;;;1999.90;999.90;;;3.60;90.90;;;;;;4966656;28;20220;-79
2020/12/27 12:34:22;;;;;;;1999.90;999.90;;;3.50;90.30;;;;;;4970147;28;20204;-78
2020/12/27 12:36:49;;;;;;;1999.90;999.90;;;3.60;90.80;;;;;;4969906;28;20408;-79
2020/12/27 12:39:16;;;;;;;1999.90;999.90;;;3.40;90.80;;;;;;4970367;28;20260;-79
2020/12/27 12:41:44;;;;;;;1999.90;999.90;;;3.40;90.60;;;;;;4972429;28;20221;-78
2020/12/27 12:44:11;;;;;;;1999.90;999.90;;;3.40;90.90;;;;;;4971576;28;20264;-80
2020/12/27 12:46:38;;;;;;;1999.90;999.90;;;3.30;90.90;;;;;;4968966;28;20246;-78
2020/12/27 12:49:06;;;;;;;1999.90;999.90;;;3.30;91.00;;;;;;4969769;28;20198;-79
2020/12/27 12:51:33;;;;;;;1999.90;999.90;;;3.30;90.80;;;;;;4967897;28;20216;-79
2020/12/27 12:54:00;;;;;;;1999.90;999.90;;;3.30;91.00;;;;;;4968007;28;20193;-78
2020/12/27 12:56:27;;;;;;;1999.90;999.90;;;3.30;90.90;;;;;;4964830;28;20287;-78
2020/12/27 12:58:54;;;;;;;1999.90;999.90;;;3.40;91.50;;;;;;4967661;28;20224;-77
2020/12/27 13:01:21;;;;;;;1999.90;999.90;;;3.40;90.40;;;;;;4967817;28;20636;-81
2020/12/27 13:03:48;;;;;;;1999.90;999.90;;;3.30;90.10;;;;;;4966734;28;20662;-79
2020/12/27 13:06:17;;;;;;;1999.90;999.90;;;3.30;90.50;;;;;;4967133;28;20200;-79
2020/12/27 13:08:44;;;;;;;1999.90;999.90;;;3.30;90.40;;;;;;4967978;28;20539;-79
2020/12/27 13:11:13;;;;;;;1999.90;999.90;;;3.30;89.90;;;;;;4973583;28;20296;-76
2020/12/27 13:13:41;;;;;;;1999.90;999.90;;;3.20;90.50;;;;;;4984351;28;20203;-75
2020/12/27 13:16:07;;;;;;;1999.90;999.90;;;3.30;90.30;;;;;;4983290;28;20623;-78
2020/12/27 13:18:34;;;;;;;1999.90;999.90;;;3.30;90.10;;;;;;4972592;28;20206;-75
2020/12/27 13:21:01;;;;;;;1999.90;999.90;;;3.40;90.30;;;;;;4961832;28;20229;-79
2020/12/27 13:23:29;;;;;;;1999.90;999.90;;;3.50;90.20;;;;;;4964600;29;20216;-80
2020/12/27 13:25:56;;;;;;;1999.90;999.90;;;3.50;90.70;;;;;;4969409;29;20245;-79
2020/12/27 13:28:23;;;;;;;1999.90;999.90;;;3.50;90.90;;;;;;4978627;28;20208;-85
2020/12/27 13:30:50;;;;;;;1999.90;999.90;;;3.40;90.50;;;;;;4979140;28;20217;-82
2020/12/27 13:33:17;;;;;;;1999.90;999.90;;;3.40;90.20;;;;;;4978781;28;20200;-83
2020/12/27 13:35:43;;;;;;;1999.90;999.90;;;3.40;90.50;;;;;;4976598;28;20249;-83
2020/12/27 13:38:10;;;;;;;1999.90;999.90;;;3.20;90.30;;;;;;4976817;28;20205;-82
2020/12/27 13:40:38;;;;;;;1999.90;999.90;;;3.20;90.80;;;;;;4979118;28;20204;-83
2020/12/27 13:43:13;;;;;;;1999.90;999.90;;;3.20;91.10;;;;;;4980870;28;20224;-83
2020/12/27 13:45:40;;;;;;;1999.90;999.90;;;3.10;91.00;;;;;;4971263;28;20236;-82
2020/12/27 13:48:08;;;;;;;1999.90;999.90;;;3.00;91.40;;;;;;4967439;29;20284;-83
2020/12/27 13:50:35;;;;;;;1999.90;999.90;;;3.00;91.80;;;;;;4966448;29;20233;-81
2020/12/27 13:53:02;;;;;;;1999.90;999.90;;;3.00;91.60;;;;;;4966201;29;20253;-80
2020/12/27 13:55:28;;;;;;;1999.90;999.90;;;2.90;91.60;;;;;;4962282;29;20221;-82
2020/12/27 13:57:56;;;;;;;1999.90;999.90;;;3.00;92.10;;;;;;4966242;29;20201;-80
2020/12/27 14:00:23;;;;;;;1999.90;999.90;;;2.80;92.10;;;;;;4964257;29;20381;-82
2020/12/27 14:02:50;;;;;;;1999.90;999.90;;;2.80;92.30;;;;;;4958534;29;20229;-82
2020/12/27 14:05:17;;;;;;;1999.90;999.90;;;2.70;92.50;;;;;;4963449;29;20621;-83
2020/12/27 14:07:44;;;;;;;1999.90;999.90;;;2.60;92.70;;;;;;4978437;28;20204;-79
2020/12/27 14:10:15;;;;;;;1999.90;999.90;;;2.50;92.60;;;;;;4980612;28;20224;-80
2020/12/27 14:12:42;;;;;;;1999.90;999.90;;;2.60;92.50;;;;;;4981377;28;20212;-78
2020/12/27 14:15:10;;;;;;;1999.90;999.90;;;2.50;92.70;;;;;;4969764;28;20272;-78
2020/12/27 14:17:37;;;;;;;1999.90;999.90;;;2.50;92.60;;;;;;4956434;29;20209;-79
2020/12/27 14:20:04;;;;;;;1999.90;999.90;;;2.50;92.70;;;;;;4955950;29;20205;-82
2020/12/27 14:22:31;;;;;;;1999.90;999.90;;;2.40;92.80;;;;;;4956280;29;20225;-81
2020/12/27 14:24:58;;;;;;;1999.90;999.90;;;2.40;92.60;;;;;;4955877;29;20658;-81
2020/12/27 14:27:25;;;;;;;1999.90;999.90;;;2.40;92.60;;;;;;4956259;29;20574;-80
2020/12/27 14:29:52;;;;;;;1999.90;999.90;;;2.40;92.50;;;;;;4958556;29;20228;-79
2020/12/27 14:32:20;;;;;;;1999.90;999.90;;;2.40;92.70;;;;;;4940689;29;20221;-82
2020/12/27 14:34:50;;;;;;;1999.90;999.90;;;2.30;94.00;;;;;;4957323;29;20210;-83
2020/12/27 14:37:20;;;;;;;1999.90;999.90;;;2.30;92.40;;;;;;4957856;29;20186;-80
2020/12/27 14:39:47;;;;;;;1999.90;999.90;;;2.00;92.70;;;;;;4955862;28;20666;-80
2020/12/27 14:42:15;;;;;;;1999.90;999.90;;;2.50;92.50;;;;;;4976964;28;20239;-82
2020/12/27 14:44:42;;;;;;;1999.90;999.90;;;2.50;92.30;;;;;;4987946;28;20235;-81
2020/12/27 14:47:27;;;;;;;1999.90;999.90;;;2.50;92.10;;;;;;4967045;28;20197;-81
2020/12/27 14:49:55;;;;;;;1999.90;999.90;;;2.50;91.90;;;;;;4963439;28;20209;-80
2020/12/27 14:55:18;;;;;;;1999.90;999.90;;;2.50;91.80;;;;;;4973047;28;20212;-81
2020/12/27 14:57:46;;;;;;;1999.90;999.90;;;2.50;92.40;;;;;;4971186;28;20204;-81
2020/12/27 15:00:13;;;;;;;1999.90;999.90;;;2.50;91.90;;;;;;4968047;28;20211;-80
2020/12/27 15:02:42;;;;;;;1999.90;999.90;;;2.50;91.80;;;;;;4966203;28;20252;-81
2020/12/27 15:05:11;;;;;;;1999.90;999.90;;;2.60;91.90;;;;;;4967298;28;20200;-81
2020/12/27 15:07:39;;;;;;;1999.90;999.90;;;2.50;91.40;;;;;;4964908;28;20194;-81
2020/12/27 15:10:08;;;;;;;1999.90;999.90;;;2.50;91.70;;;;;;4964072;28;20286;-82
2020/12/27 15:12:36;;;;;;;1999.90;999.90;;;2.50;91.80;;;;;;4965526;28;20256;-80
2020/12/27 15:15:04;;;;;;;1999.90;999.90;;;2.50;91.80;;;;;;4966657;28;20605;-81
2020/12/27 15:17:32;;;;;;;1999.90;999.90;;;2.50;91.70;;;;;;4972565;28;20204;-80
2020/12/27 15:20:00;;;;;;;1999.90;999.90;;;2.50;91.70;;;;;;4973552;28;20207;-76
2020/12/27 15:22:29;;;;;;;1999.90;999.90;;;2.50;92.10;;;;;;4968411;28;20323;-77
2020/12/27 15:24:56;;;;;;;1999.90;999.90;;;2.50;91.90;;;;;;4965644;28;20666;-78
2020/12/27 15:27:24;;;;;;;1999.90;999.90;;;2.50;92.00;;;;;;4976122;28;20201;-78
2020/12/27 15:29:52;;;;;;;1999.90;999.90;;;2.50;91.80;;;;;;4977843;28;20215;-79
2020/12/27 15:32:20;;;;;;;1999.90;999.90;;;2.50;92.10;;;;;;4976686;28;20224;-79
2020/12/27 15:34:47;;;;;;;1999.90;999.90;;;2.50;91.90;;;;;;4976903;28;20209;-78
2020/12/27 15:37:18;;;;;;;1999.90;999.90;;;2.50;91.90;;;;;;4977281;28;20204;-78
2020/12/27 15:39:47;;;;;;;1999.90;999.90;;;2.50;92.10;;;;;;4974325;28;20218;-80
2020/12/27 15:42:15;;;;;;;1999.90;999.90;;;2.50;91.90;;;;;;4974966;28;20310;-80
2020/12/27 15:44:43;;;;;;;1999.90;999.90;;;2.50;92.20;;;;;;4975975;28;20568;-79
2020/12/27 15:47:11;;;;;;;1999.90;999.90;;;2.50;92.20;;;;;;4980295;28;20209;-80
2020/12/27 15:49:39;;;;;;;1999.90;999.90;;;2.50;92.40;;;;;;4979924;28;20236;-80
2020/12/27 15:52:07;;;;;;;1999.90;999.90;;;2.50;91.80;;;;;;4980426;28;20697;-78
2020/12/27 15:54:35;;;;;;;1999.90;999.90;;;2.50;91.80;;;;;;4979957;28;20598;-79
2020/12/27 15:57:04;;;;;;;1999.90;999.90;;;2.50;92.40;;;;;;4995326;28;20258;-80
2020/12/27 15:59:36;;;;;;;1999.90;999.90;;;2.50;91.80;;;;;;5000419;28;20615;-80
2020/12/27 16:02:06;;;;;;;1999.90;999.90;;;2.50;92.20;;;;;;4998895;28;20586;-80
2020/12/27 16:04:34;;;;;;;1999.90;999.90;;;2.50;92.30;;;;;;4958995;28;20228;-80
2020/12/27 16:07:03;;;;;;;1999.90;999.90;;;2.50;92.50;;;;;;4952850;28;20240;-80
2020/12/27 16:09:31;;;;;;;1999.90;999.90;;;2.40;92.40;;;;;;4972232;28;20690;-80
2020/12/27 16:12:01;;;;;;;1999.90;999.90;;;2.50;92.20;;;;;;4970757;28;20251;-80
2020/12/27 16:14:43;;;;;;;1999.90;999.90;;;2.50;92.50;;;;;;4971701;28;20205;-78
2020/12/27 16:17:12;;;;;;;1999.90;999.90;;;2.50;92.50;;;;;;4974452;28;20231;-78
2020/12/27 16:19:40;;;;;;;1999.90;999.90;;;2.50;92.50;;;;;;4959345;28;20196;-79
2020/12/27 16:22:08;;;;;;;1999.90;999.90;;;2.50;92.60;;;;;;4964423;28;20228;-78
2020/12/27 16:24:36;;;;;;;1999.90;999.90;;;2.50;92.60;;;;;;4974352;28;20209;-77
2020/12/27 16:27:03;;;;;;;1999.90;999.90;;;2.50;92.70;;;;;;4969027;28;20599;-78
2020/12/27 16:29:31;;;;;;;1999.90;999.90;;;2.50;93.10;;;;;;4969306;28;20255;-79
2020/12/27 16:31:59;;;;;;;1999.90;999.90;;;2.50;93.00;;;;;;4957571;28;20678;-79
2020/12/27 16:34:27;;;;;;;1999.90;999.90;;;2.50;92.90;;;;;;4970799;28;20208;-80
2020/12/27 16:36:56;;;;;;;1999.90;999.90;;;2.50;93.30;;;;;;4972695;28;20221;-81
2020/12/27 16:39:23;;;;;;;1999.90;999.90;;;2.50;93.70;;;;;;4972356;28;20758;-79
2020/12/27 16:41:57;;;;;;;1999.90;999.90;;;2.50;93.40;;;;;;4965261;28;20217;-79
2020/12/27 16:44:24;;;;;;;1999.90;999.90;;;2.60;93.60;;;;;;4966950;28;20209;-79
2020/12/27 16:46:52;;;;;;;1999.90;999.90;;;2.60;93.80;;;;;;4981933;28;20208;-78
2020/12/27 16:49:22;;;;;;;1999.90;999.90;;;2.60;93.50;;;;;;4980956;28;20207;-78
2020/12/27 16:51:51;;;;;;;1999.90;999.90;;;2.60;94.00;;;;;;4978006;28;20252;-78
2020/12/27 16:54:20;;;;;;;1999.90;999.90;;;2.70;93.90;;;;;;4972659;28;20268;-81
2020/12/27 16:56:47;;;;;;;1999.90;999.90;;;2.60;94.10;;;;;;4980529;28;20264;-80
2020/12/27 16:59:16;;;;;;;1999.90;999.90;;;2.60;94.30;;;;;;4963792;28;20235;-79
2020/12/27 17:01:50;;;;;;;1999.90;999.90;;;2.50;94.40;;;;;;4978544;28;20307;-81
2020/12/27 17:04:18;;;;;;;1999.90;999.90;;;2.60;94.50;;;;;;4968035;28;20212;-81
2020/12/27 17:06:51;;;;;;;1999.90;999.90;;;2.60;94.60;;;;;;4964072;28;20598;-79
2020/12/27 17:09:23;;;;;;;1999.90;999.90;;;2.60;94.60;;;;;;4973290;28;20575;-78
2020/12/27 17:11:56;;;;;;;1999.90;999.90;;;2.60;94.60;;;;;;4970659;28;20287;-79
2020/12/27 17:14:24;;;;;;;1999.90;999.90;;;2.70;94.90;;;;;;4971006;28;20238;-78
2020/12/27 17:16:52;;;;;;;1999.90;999.90;;;2.70;95.10;;;;;;4971492;28;20211;-78
2020/12/27 17:19:20;;;;;;;1999.90;999.90;;;2.60;95.20;;;;;;4971470;28;20196;-78
2020/12/27 17:21:49;;;;;;;1999.90;999.90;;;2.60;95.30;;;;;;4969723;28;20591;-80
2020/12/27 17:24:16;;;;;;;1999.90;999.90;;;2.60;95.40;;;;;;4975107;28;20238;-77
2020/12/27 17:26:45;;;;;;;1999.90;999.90;;;2.60;95.40;;;;;;4974134;28;20684;-77
2020/12/27 17:29:13;;;;;;;1999.90;999.90;;;2.50;95.50;;;;;;4974965;28;20212;-78
2020/12/27 17:31:40;;;;;;;1999.90;999.90;;;2.60;95.70;;;;;;4974542;28;20592;-76